createdAt,value
2022-08-14T00:02:36.967Z,101692.03
2022-08-14T00:05:05.567Z,101680.97
2022-08-14T00:07:35.502Z,101662.03
2022-08-14T00:10:52.614Z,101652.78
2022-08-14T00:13:06.711Z,101654.88
2022-08-14T00:15:43.488Z,101640.31
2022-08-14T00:18:31.049Z,101632.72
2022-08-14T00:21:02.885Z,101624.19
2022-08-14T00:23:31.419Z,101613.81
2022-08-14T00:26:05.998Z,101607.06
2022-08-14T00:28:37.266Z,101591.38
2022-08-14T00:31:08.087Z,101588.03
2022-08-14T00:33:51.184Z,101575.84
2022-08-14T00:36:37.397Z,101563.66
2022-08-14T00:39:12.812Z,101545.28
2022-08-14T00:41:42.451Z,101548.94
2022-08-14T00:44:10.761Z,101538.28
2022-08-14T00:46:38.945Z,101541.09
2022-08-14T00:49:08.178Z,101542.22
2022-08-14T00:51:44.199Z,101535.63
2022-08-14T00:55:05.893Z,101517.69
2022-08-14T00:57:38.639Z,101493.00
2022-08-14T01:00:34.326Z,101475.91
2022-08-14T01:03:00.666Z,101464.03
2022-08-14T01:05:50.602Z,101447.63
2022-08-14T01:08:51.834Z,101439.94
2022-08-14T01:11:09.845Z,101431.94
2022-08-14T01:13:42.306Z,101426.63
2022-08-14T01:16:14.848Z,101426.78
2022-08-14T01:19:02.430Z,101418.22
2022-08-14T01:21:38.605Z,101404.53
2022-08-14T01:24:09.824Z,101392.50
2022-08-14T01:26:39.302Z,101384.81
2022-08-14T01:29:10.886Z,101370.09
2022-08-14T01:31:45.699Z,101357.06
2022-08-14T01:35:21.146Z,101347.56
2022-08-14T01:37:10.771Z,101339.88
2022-08-14T01:39:39.094Z,101332.03
2022-08-14T01:42:07.545Z,101321.00
2022-08-14T01:44:38.906Z,101311.56
2022-08-14T01:47:21.860Z,101297.88
2022-08-14T01:50:01.694Z,101279.00
2022-08-14T01:52:58.802Z,101253.84
2022-08-14T01:55:30.537Z,101234.09
2022-08-14T01:58:02.039Z,101223.34
2022-08-14T02:00:48.229Z,101211.34
2022-08-14T02:03:17.265Z,101204.63
2022-08-14T02:05:45.173Z,101211.63
2022-08-14T02:08:16.021Z,101209.91
2022-08-14T02:11:10.284Z,101206.41
2022-08-14T02:13:38.219Z,101203.06
2022-08-14T02:16:21.750Z,101200.56
2022-08-14T02:18:50.177Z,101200.84
2022-08-14T02:21:19.458Z,101193.84
2022-08-14T02:23:54.345Z,101198.19
2022-08-14T02:26:29.740Z,101190.34
2022-08-14T02:29:03.374Z,101185.19
2022-08-14T02:31:42.051Z,101176.53
2022-08-14T02:34:20.331Z,101170.66
2022-08-14T02:37:03.574Z,101163.66
2022-08-14T02:39:38.627Z,101168.13
2022-08-14T02:42:12.825Z,101160.31
2022-08-14T02:44:43.075Z,101163.13
2022-08-14T02:47:20.801Z,101155.56
2022-08-14T02:49:56.672Z,101141.84
2022-08-14T02:52:26.863Z,101129.72
2022-08-14T02:55:19.866Z,101117.94
2022-08-14T02:58:03.402Z,101106.88
2022-08-14T03:00:35.529Z,101086.25
2022-08-14T03:03:08.423Z,101071.56
2022-08-14T03:05:41.261Z,101057.88
2022-08-14T03:08:15.115Z,101053.69
2022-08-14T03:10:48.612Z,101027.88
2022-08-14T03:13:20.783Z,101020.03
2022-08-14T03:15:56.054Z,101005.50
2022-08-14T03:18:31.997Z,101000.47
2022-08-14T03:21:03.410Z,100997.28
2022-08-14T03:23:38.319Z,100988.50
2022-08-14T03:26:13.008Z,100980.81
2022-08-14T03:28:48.689Z,100975.66
2022-08-14T03:31:17.291Z,100978.44
2022-08-14T03:33:45.457Z,100968.09
2022-08-14T03:37:51.625Z,100963.06
2022-08-14T03:39:21.774Z,100950.13
2022-08-14T03:41:53.967Z,100944.94
2022-08-14T03:45:28.012Z,100943.97
2022-08-14T03:47:11.938Z,100932.53
2022-08-14T03:49:50.002Z,100931.56
2022-08-14T03:52:38.124Z,100928.75
2022-08-14T03:55:08.868Z,100927.78
2022-08-14T03:57:38.861Z,100929.59
2022-08-14T04:00:13.831Z,100932.25
2022-08-14T04:03:01.630Z,100922.03
2022-08-14T04:05:42.515Z,100913.69
2022-08-14T04:08:29.000Z,100904.47
2022-08-14T04:10:58.561Z,100886.16
2022-08-14T04:13:39.397Z,100884.63
2022-08-14T04:16:12.690Z,100883.81
2022-08-14T04:18:42.358Z,100880.31
2022-08-14T04:21:11.604Z,100882.97
2022-08-14T04:23:40.016Z,100882.81
2022-08-14T04:26:14.972Z,100884.63
2022-08-14T04:29:08.805Z,100868.19
2022-08-14T04:32:57.334Z,100867.34
2022-08-14T04:34:30.831Z,100863.00
2022-08-14T04:37:21.920Z,100864.13
2022-08-14T04:40:08.811Z,100857.28
2022-08-14T04:42:54.318Z,100852.44
2022-08-14T04:45:25.278Z,100845.59
2022-08-14T04:48:38.711Z,100841.13
2022-08-14T04:51:05.859Z,100835.13
2022-08-14T04:53:36.186Z,100829.97
2022-08-14T04:56:31.118Z,100824.78
2022-08-14T04:59:05.019Z,100813.50
2022-08-14T05:01:49.113Z,100798.88
2022-08-14T05:04:20.899Z,100799.84
2022-08-14T05:06:53.678Z,100798.16
2022-08-14T05:09:22.992Z,100798.16
2022-08-14T05:11:51.427Z,100793.88
2022-08-14T05:14:45.700Z,100788.69
2022-08-14T05:17:12.174Z,100793.88
2022-08-14T05:19:44.335Z,100786.88
2022-08-14T05:22:29.908Z,100787.84
2022-08-14T05:24:58.391Z,100790.66
2022-08-14T05:27:26.387Z,100794.25
2022-08-14T05:29:59.147Z,100783.13
2022-08-14T05:32:28.577Z,100771.97
2022-08-14T05:34:59.209Z,100773.94
2022-08-14T05:37:29.843Z,100766.94
2022-08-14T05:39:59.333Z,100771.41
2022-08-14T05:42:29.505Z,100771.41
2022-08-14T05:45:11.238Z,100776.69
2022-08-14T05:47:43.337Z,100773.94
2022-08-14T05:50:17.595Z,100778.38
2022-08-14T05:52:47.420Z,100788.03
2022-08-14T05:55:15.695Z,100796.50
2022-08-14T05:57:53.582Z,100820.63
2022-08-14T06:00:24.693Z,100839.31
2022-08-14T06:03:00.799Z,100851.03
2022-08-14T06:05:32.854Z,100867.91
2022-08-14T06:08:08.725Z,100884.09
2022-08-14T06:10:52.679Z,100892.47
2022-08-14T06:13:21.409Z,100898.47
2022-08-14T06:15:50.695Z,100892.22
2022-08-14T06:18:22.557Z,100892.91
2022-08-14T06:20:53.582Z,100893.47
2022-08-14T06:23:25.312Z,100905.44
2022-08-14T06:25:55.558Z,100915.78
2022-08-14T06:28:28.294Z,100907.41
2022-08-14T06:30:57.143Z,100916.75
2022-08-14T06:35:01.346Z,100919.81
2022-08-14T06:36:18.354Z,100931.84
2022-08-14T06:38:50.458Z,100936.03
2022-08-14T06:41:19.147Z,100942.84
2022-08-14T06:43:49.254Z,100943.81
2022-08-14T06:46:31.373Z,100933.22
2022-08-14T06:49:02.764Z,100934.91
2022-08-14T06:51:38.967Z,100932.94
2022-08-14T06:54:13.378Z,100934.91
2022-08-14T06:56:44.470Z,100945.50
2022-08-14T06:59:22.796Z,100948.28
2022-08-14T07:02:13.314Z,100949.13
2022-08-14T07:05:00.684Z,100944.09
2022-08-14T07:07:39.317Z,100953.88
2022-08-14T07:10:07.803Z,100956.66
2022-08-14T07:13:01.471Z,100959.47
2022-08-14T07:15:32.683Z,100958.63
2022-08-14T07:18:03.621Z,100962.13
2022-08-14T07:20:34.721Z,100964.78
2022-08-14T07:23:08.878Z,100975.06
2022-08-14T07:25:40.392Z,100987.09
2022-08-14T07:28:13.061Z,100994.63
2022-08-14T07:30:51.616Z,101010.00
2022-08-14T07:33:24.958Z,101008.75
2022-08-14T07:36:01.485Z,101019.03
2022-08-14T07:38:35.795Z,101030.78
2022-08-14T07:41:06.927Z,101044.47
2022-08-14T07:43:41.091Z,101065.28
2022-08-14T07:46:09.153Z,101072.69
2022-08-14T07:48:41.563Z,101086.41
2022-08-14T07:51:11.552Z,101092.97
2022-08-14T07:53:41.134Z,101107.50
2022-08-14T07:56:21.857Z,101113.22
2022-08-14T07:58:58.946Z,101128.47
2022-08-14T08:01:30.009Z,101138.50
2022-08-14T08:04:01.181Z,101155.69
2022-08-14T08:06:33.024Z,101169.25
2022-08-14T08:09:04.107Z,101174.00
2022-08-14T08:11:37.455Z,101192.28
2022-08-14T08:14:10.810Z,101198.75
2022-08-14T08:16:47.448Z,101212.16
2022-08-14T08:19:19.674Z,101225.72
2022-08-14T08:21:49.314Z,101229.63
2022-08-14T08:24:20.164Z,101245.88
2022-08-14T08:26:50.472Z,101253.97
2022-08-14T08:29:25.170Z,101289.34
2022-08-14T08:31:56.729Z,101318.03
2022-08-14T08:34:30.642Z,101358.88
2022-08-14T08:37:06.552Z,101401.44
2022-08-14T08:40:03.058Z,101445.66
2022-08-14T08:42:38.788Z,101490.06
2022-08-14T08:45:12.216Z,101533.75
2022-08-14T08:47:41.610Z,101556.34
2022-08-14T08:50:23.151Z,101588.72
2022-08-14T08:53:02.650Z,101616.84
2022-08-14T08:55:34.243Z,101633.53
2022-08-14T08:58:05.445Z,101665.19
2022-08-14T09:00:43.075Z,101682.84
2022-08-14T09:03:12.554Z,101699.84
2022-08-14T09:05:51.290Z,101714.16
2022-08-14T09:08:31.453Z,101723.25
2022-08-14T09:11:19.772Z,101751.91
2022-08-14T09:13:51.346Z,101741.34
2022-08-14T09:16:23.566Z,101725.78
2022-08-14T09:18:53.324Z,101715.41
2022-08-14T09:21:23.996Z,101724.09
2022-08-14T09:24:27.899Z,101743.91
2022-08-14T09:26:49.392Z,101758.16
2022-08-14T09:29:20.126Z,101789.34
2022-08-14T09:31:57.354Z,101802.78
2022-08-14T09:34:58.565Z,101821.59
2022-08-14T09:37:36.456Z,101845.34
2022-08-14T09:40:21.245Z,101866.50
2022-08-14T09:43:01.535Z,101899.91
2022-08-14T09:45:39.705Z,101924.34
2022-08-14T09:48:16.724Z,101961.13
2022-08-14T09:50:49.556Z,101984.06
2022-08-14T09:54:12.967Z,102006.13
2022-08-14T09:56:30.195Z,102028.31
2022-08-14T09:59:01.115Z,102031.38
2022-08-14T10:01:40.356Z,102035.28
2022-08-14T10:04:33.530Z,102033.28
2022-08-14T10:07:05.752Z,102040.91
2022-08-14T10:09:35.082Z,102041.28
2022-08-14T10:12:06.898Z,102055.75
2022-08-14T10:14:53.471Z,102067.44
2022-08-14T10:17:29.553Z,102063.44
2022-08-14T10:20:08.287Z,102049.25
2022-08-14T10:23:12.445Z,102069.91
2022-08-14T10:25:45.323Z,102082.41
2022-08-14T10:28:39.601Z,102097.72
2022-08-14T10:31:03.645Z,102114.38
2022-08-14T10:33:33.715Z,102127.19
2022-08-14T10:36:02.887Z,102128.28
2022-08-14T10:38:33.396Z,102154.03
2022-08-14T10:41:13.367Z,102157.66
2022-08-14T10:43:43.867Z,102158.72
2022-08-14T10:46:59.298Z,102190.50
2022-08-14T10:49:04.918Z,102212.56
2022-08-14T10:51:36.317Z,102231.09
2022-08-14T10:54:25.897Z,102245.31
2022-08-14T10:56:59.813Z,102268.53
2022-08-14T10:59:45.660Z,102277.66
2022-08-14T11:02:22.291Z,102308.63
2022-08-14T11:05:13.221Z,102333.22
2022-08-14T11:07:56.590Z,102344.50
2022-08-14T11:10:27.776Z,102365.19
2022-08-14T11:12:57.951Z,102381.25
2022-08-14T11:15:29.733Z,102407.66
2022-08-14T11:18:01.243Z,102431.03
2022-08-14T11:20:31.696Z,102435.94
2022-08-14T11:23:02.573Z,102456.81
2022-08-14T11:25:43.949Z,102477.69
2022-08-14T11:28:46.962Z,102503.94
2022-08-14T11:31:15.833Z,102520.13
2022-08-14T11:33:43.926Z,102519.13
2022-08-14T11:36:18.314Z,102530.09
2022-08-14T11:38:48.098Z,102541.66
2022-08-14T11:41:17.619Z,102548.03
2022-08-14T11:43:56.252Z,102554.63
2022-08-14T11:46:29.745Z,102567.44
2022-08-14T11:49:05.779Z,102595.63
2022-08-14T11:51:36.040Z,102598.16
2022-08-14T11:54:19.401Z,102603.38
2022-08-14T11:56:49.959Z,102650.75
2022-08-14T11:59:26.388Z,102699.75
2022-08-14T12:03:01.760Z,102747.53
2022-08-14T12:05:00.446Z,102797.41
2022-08-14T12:07:32.155Z,102854.13
2022-08-14T12:10:25.686Z,102894.56
2022-08-14T12:12:54.933Z,102951.78
2022-08-14T12:15:31.499Z,103011.84
2022-08-14T12:18:01.207Z,103063.28
2022-08-14T12:20:33.968Z,103115.41
2022-08-14T12:23:05.188Z,103138.84
2022-08-14T12:25:34.713Z,103180.81
2022-08-14T12:28:05.671Z,103197.41
2022-08-14T12:30:40.046Z,103191.03
2022-08-14T12:33:31.200Z,103186.00
2022-08-14T12:36:04.580Z,103203.28
2022-08-14T12:38:36.557Z,103244.59
2022-08-14T12:41:10.779Z,103231.09
2022-08-14T12:43:48.186Z,103241.25
2022-08-14T12:46:28.621Z,103259.50
2022-08-14T12:49:00.414Z,103296.31
2022-08-14T12:51:31.311Z,103352.53
2022-08-14T12:54:00.761Z,103413.03
2022-08-14T12:56:33.125Z,103462.22
2022-08-14T12:59:04.663Z,103455.47
2022-08-14T13:02:00.139Z,103422.94
2022-08-14T13:04:25.484Z,103404.31
2022-08-14T13:06:54.024Z,103417.34
2022-08-14T13:09:27.929Z,103446.69
2022-08-14T13:12:32.242Z,103469.91
2022-08-14T13:14:57.903Z,103495.56
2022-08-14T13:17:26.924Z,103537.78
2022-08-14T13:19:59.059Z,103534.91
2022-08-14T13:22:32.208Z,103554.75
2022-08-14T13:25:05.279Z,103585.97
2022-08-14T13:27:39.453Z,103567.84
2022-08-14T13:30:14.502Z,103578.50
2022-08-14T13:32:53.680Z,103600.09
2022-08-14T13:35:23.476Z,103621.63
2022-08-14T13:37:53.717Z,103647.44
2022-08-14T13:40:26.600Z,103679.50
2022-08-14T13:42:57.015Z,103699.41
2022-08-14T13:45:34.018Z,103723.50
2022-08-14T13:48:32.815Z,103743.38
2022-08-14T13:51:07.825Z,103770.88
2022-08-14T13:54:06.975Z,103802.69
2022-08-14T13:56:38.265Z,103813.75
2022-08-14T13:59:07.541Z,103807.13
2022-08-14T14:01:44.001Z,103825.28
2022-08-14T14:04:19.614Z,103854.00
2022-08-14T14:06:52.015Z,103873.56
2022-08-14T14:09:32.445Z,103894.28
2022-08-14T14:12:38.051Z,103904.50
2022-08-14T14:14:57.224Z,103913.00
2022-08-14T14:17:31.595Z,103898.06
2022-08-14T14:20:00.057Z,103892.63
2022-08-14T14:22:35.310Z,103896.69
2022-08-14T14:25:21.985Z,103904.16
2022-08-14T14:27:53.378Z,103918.28
2022-08-14T14:30:52.201Z,103926.97
2022-08-14T14:33:42.420Z,103938.84
2022-08-14T14:36:04.979Z,103963.03
2022-08-14T14:38:35.064Z,104000.59
2022-08-14T14:41:05.758Z,104043.09
2022-08-14T14:43:37.398Z,104087.34
2022-08-14T14:46:09.240Z,104092.13
2022-08-14T14:48:46.468Z,104081.59
2022-08-14T14:51:16.307Z,104054.38
2022-08-14T14:53:47.035Z,104043.78
2022-08-14T14:56:51.606Z,104014.19
2022-08-14T14:59:03.209Z,104002.97
2022-08-14T15:01:36.080Z,104003.81
2022-08-14T15:04:07.924Z,103981.06
2022-08-14T15:06:36.799Z,103972.19
2022-08-14T15:09:17.703Z,103973.91
2022-08-14T15:11:47.070Z,103982.59
2022-08-14T15:14:55.246Z,103996.69
2022-08-14T15:17:06.481Z,103979.69
2022-08-14T15:19:34.865Z,104010.47
2022-08-14T15:22:03.595Z,104008.25
2022-08-14T15:24:32.950Z,104026.47
2022-08-14T15:27:03.134Z,104038.56
2022-08-14T15:29:31.134Z,104039.22
2022-08-14T15:31:59.645Z,104034.78
2022-08-14T15:34:46.050Z,104035.50
2022-08-14T15:37:16.802Z,104030.06
2022-08-14T15:39:46.625Z,104055.22
2022-08-14T15:42:16.601Z,104073.91
2022-08-14T15:44:57.286Z,104087.88
2022-08-14T15:47:28.010Z,104091.97
2022-08-14T15:49:59.197Z,104063.03
2022-08-14T15:52:42.400Z,104088.19
2022-08-14T15:55:16.430Z,104141.47
2022-08-14T15:58:01.503Z,104169.22
2022-08-14T16:00:51.743Z,104209.22
2022-08-14T16:03:27.648Z,104231.56
2022-08-14T16:06:04.107Z,104249.09
2022-08-14T16:08:32.053Z,104251.28
2022-08-14T16:11:04.105Z,104255.75
2022-08-14T16:13:41.398Z,104274.13
2022-08-14T16:16:49.741Z,104253.69
2022-08-14T16:19:09.489Z,104261.53
2022-08-14T16:21:40.774Z,104272.59
2022-08-14T16:24:33.384Z,104251.63
2022-08-14T16:27:05.253Z,104239.53
2022-08-14T16:29:35.827Z,104217.75
2022-08-14T16:32:36.060Z,104180.44
2022-08-14T16:34:55.763Z,104120.19
2022-08-14T16:37:30.452Z,104115.75
2022-08-14T16:40:00.542Z,104152.19
2022-08-14T16:43:03.019Z,104184.19
2022-08-14T16:45:26.297Z,104211.13
2022-08-14T16:47:55.904Z,104217.41
2022-08-14T16:50:43.036Z,104209.56
2022-08-14T16:53:17.174Z,104225.44
2022-08-14T16:55:53.723Z,104229.84
2022-08-14T16:58:29.734Z,104229.84
2022-08-14T17:01:22.574Z,104257.78
2022-08-14T17:03:58.183Z,104229.69
2022-08-14T17:06:46.189Z,104220.31
2022-08-14T17:09:35.700Z,104194.59
2022-08-14T17:12:09.431Z,104158.00
2022-08-14T17:15:03.413Z,104143.00
2022-08-14T17:17:49.877Z,104160.38
2022-08-14T17:20:39.553Z,104170.75
2022-08-14T17:23:15.248Z,104179.44
2022-08-14T17:25:49.233Z,104152.69
2022-08-14T17:28:51.970Z,104105.22
2022-08-14T17:31:12.345Z,104113.25
2022-08-14T17:33:44.530Z,104010.16
2022-08-14T17:36:22.449Z,103902.47
2022-08-14T17:39:06.424Z,103695.22
2022-08-14T17:41:37.595Z,103417.69
2022-08-14T17:44:20.097Z,103318.06
2022-08-14T17:46:55.109Z,103300.25
2022-08-14T17:49:27.183Z,103294.34
2022-08-14T17:52:07.802Z,103281.16
2022-08-14T17:54:48.577Z,103241.16
2022-08-14T17:57:28.590Z,103118.91
2022-08-14T17:59:59.020Z,103076.81
2022-08-14T18:02:31.357Z,103064.78
2022-08-14T18:05:02.978Z,103071.56
2022-08-14T18:07:59.695Z,103077.50
2022-08-14T18:10:55.109Z,103074.94
2022-08-14T18:13:10.618Z,103083.06
2022-08-14T18:15:41.383Z,103028.59
2022-08-14T18:18:12.017Z,103016.41
2022-08-14T18:21:40.827Z,102962.19
2022-08-14T18:23:29.158Z,102826.16
2022-08-14T18:25:58.795Z,102665.56
2022-08-14T18:28:51.035Z,102584.59
2022-08-14T18:31:43.764Z,102460.84
2022-08-14T18:34:32.199Z,102389.38
2022-08-14T18:37:16.725Z,102287.59
2022-08-14T18:40:02.740Z,102162.47
2022-08-14T18:42:45.367Z,102031.44
2022-08-14T18:45:26.329Z,101926.25
2022-08-14T18:48:50.749Z,101871.00
2022-08-14T18:51:45.537Z,101799.44
2022-08-14T18:54:29.904Z,101726.09
2022-08-14T18:57:03.083Z,101675.25
2022-08-14T18:59:35.570Z,101631.81
2022-08-14T19:02:43.039Z,101596.75
2022-08-14T19:05:12.345Z,101564.56
2022-08-14T19:07:41.947Z,101539.91
2022-08-14T19:10:16.843Z,101543.59
2022-08-14T19:13:13.381Z,101543.44
2022-08-14T19:15:56.348Z,101523.69
2022-08-14T19:18:27.969Z,101517.22
2022-08-14T19:20:58.572Z,101480.78
2022-08-14T19:23:42.218Z,101467.13
2022-08-14T19:26:35.252Z,101450.22
2022-08-14T19:29:24.061Z,101435.94
2022-08-14T19:31:55.464Z,101425.75
2022-08-14T19:34:52.732Z,101430.25
2022-08-14T19:37:45.917Z,101408.53
2022-08-14T19:40:29.092Z,101390.31
2022-08-14T19:42:59.236Z,101395.66
2022-08-14T19:45:30.152Z,101399.28
2022-08-14T19:48:02.594Z,101393.13
2022-08-14T19:50:40.620Z,101395.78
2022-08-14T19:53:16.638Z,101388.94
2022-08-14T19:56:01.366Z,101374.22
2022-08-14T19:58:54.891Z,101367.31
2022-08-14T20:01:36.729Z,101342.81
2022-08-14T20:04:45.401Z,101335.78
2022-08-14T20:07:04.327Z,101334.94
2022-08-14T20:11:12.983Z,101332.28
2022-08-14T20:12:36.643Z,101323.78
2022-08-14T20:15:46.931Z,101329.09
2022-08-14T20:18:39.047Z,101320.25
2022-08-14T20:21:05.193Z,101310.56
2022-08-14T20:23:38.395Z,101308.22
2022-08-14T20:26:31.794Z,101303.03
2022-08-14T20:29:07.451Z,101303.34
2022-08-14T20:31:38.404Z,101307.53
2022-08-14T20:34:24.850Z,101309.22
2022-08-14T20:37:09.952Z,101304.31
2022-08-14T20:39:54.161Z,101287.41
2022-08-14T20:42:43.900Z,101278.22
2022-08-14T20:45:21.621Z,101254.13
2022-08-14T20:47:58.489Z,101242.13
2022-08-14T20:50:30.730Z,101245.75
2022-08-14T20:53:00.154Z,101246.06
2022-08-14T20:55:32.473Z,101244.41
2022-08-14T20:58:10.046Z,101250.03
2022-08-14T21:01:00.635Z,101241.38
2022-08-14T21:03:56.429Z,101224.84
2022-08-14T21:06:28.689Z,101205.81
2022-08-14T21:09:02.042Z,101191.06
2022-08-14T21:11:31.289Z,101170.06
2022-08-14T21:14:20.901Z,101162.53
2022-08-14T21:16:59.102Z,101153.19
2022-08-14T21:19:30.235Z,101134.16
2022-08-14T21:22:01.821Z,101130.81
2022-08-14T21:24:39.157Z,101118.81
2022-08-14T21:27:22.049Z,101101.44
2022-08-14T21:29:55.572Z,101091.41
2022-08-14T21:32:36.509Z,101076.88
2022-08-14T21:35:16.928Z,101050.72
2022-08-14T21:37:48.029Z,101047.53
2022-08-14T21:40:35.333Z,101040.84
2022-08-14T21:43:06.113Z,101030.69
2022-08-14T21:45:53.038Z,101017.97
2022-08-14T21:48:25.337Z,101008.59
2022-08-14T21:51:01.606Z,101003.59
2022-08-14T21:53:58.200Z,100996.75
2022-08-14T21:56:38.369Z,100984.72
2022-08-14T21:59:09.601Z,100987.50
2022-08-14T22:02:00.276Z,100984.19
2022-08-14T22:04:32.890Z,100968.97
2022-08-14T22:07:04.023Z,100942.31
2022-08-14T22:09:36.238Z,100920.97
2022-08-14T22:12:06.968Z,100900.59
2022-08-14T22:14:43.710Z,100889.75
2022-08-14T22:17:16.227Z,100871.75
2022-08-14T22:19:47.377Z,100872.88
2022-08-14T22:22:24.239Z,100866.72
2022-08-14T22:24:59.977Z,100859.03
2022-08-14T22:27:32.123Z,100852.34
2022-08-14T22:30:01.227Z,100842.84
2022-08-14T22:32:56.047Z,100827.38
2022-08-14T22:35:23.254Z,100817.31
2022-08-14T22:38:01.462Z,100808.97
2022-08-14T22:41:02.594Z,100804.97
2022-08-14T22:43:19.753Z,100786.13
2022-08-14T22:45:55.128Z,100762.81
2022-08-14T22:48:23.881Z,100757.97
2022-08-14T22:50:53.605Z,100749.31
2022-08-14T22:53:23.334Z,100729.53
2022-08-14T22:55:52.516Z,100723.00
2022-08-14T22:58:30.519Z,100726.63
2022-08-14T23:01:01.338Z,100726.91
2022-08-14T23:03:34.217Z,100714.78
2022-08-14T23:06:03.204Z,100695.69
2022-08-14T23:09:01.961Z,100690.69
2022-08-14T23:11:40.952Z,100676.03
2022-08-14T23:14:12.330Z,100668.34
2022-08-14T23:16:42.628Z,100663.34
2022-08-14T23:19:11.364Z,100649.56
2022-08-14T23:21:39.649Z,100638.41
2022-08-14T23:24:17.304Z,100648.19
2022-08-14T23:26:55.783Z,100651.81
2022-08-14T23:29:25.119Z,100641.53
2022-08-14T23:31:54.134Z,100643.34
2022-08-14T23:34:23.866Z,100638.88
2022-08-14T23:36:55.342Z,100653.66
2022-08-14T23:39:30.121Z,100652.66
2022-08-14T23:42:02.360Z,100659.78
2022-08-14T23:44:35.262Z,100651.00
2022-08-14T23:47:11.619Z,100636.31
2022-08-14T23:50:00.341Z,100630.63
2022-08-14T23:52:50.124Z,100617.00
2022-08-14T23:55:25.180Z,100605.28
2022-08-14T23:57:57.969Z,100593.34
